Time;durP1;ratioP1;P1;durP2;ratioP2;P2;SDS_P1;SDS_P2;PMS_P1;PMS_P2;Temp;Humidity;BMP_temperature;BMP_pressure;BME280_temperature;BME280_humidity;BME280_pressure;Samples;Min_cycle;Max_cycle;Signal;HPM_P1;HPM_P2
2023/08/29 00:00:29;;;;;;;;;1.25;1.25;;;;;23.89;39.75;100881.13;4958148;28;45453;-42
2023/08/29 00:02:54;;;;;;;;;1.25;1.25;;;;;23.91;39.71;100883.66;4958226;28;45449;-38
2023/08/29 00:05:20;;;;;;;;;1.00;1.00;;;;;23.90;40.31;100888.13;4958623;28;45371;-39
2023/08/29 00:07:45;;;;;;;;;0.00;0.00;;;;;23.88;40.39;100879.44;4959068;28;45437;-39
2023/08/29 00:10:11;;;;;;;;;1.00;0.00;;;;;23.91;40.13;100883.66;4958383;28;46161;-40
2023/08/29 00:12:37;;;;;;;;;1.75;1.00;;;;;23.90;40.16;100888.13;4958117;28;55517;-45
2023/08/29 00:15:06;;;;;;;;;3.00;1.75;;;;;23.89;40.45;100885.56;4958502;28;45424;-42
2023/08/29 00:17:31;;;;;;;;;2.00;1.00;;;;;23.90;39.75;100876.69;4958863;28;45500;-41
2023/08/29 00:19:57;;;;;;;;;1.75;1.25;;;;;23.90;40.23;100887.25;4958446;28;46290;-42
2023/08/29 00:22:22;;;;;;;;;2.00;1.00;;;;;23.88;40.31;100882.09;4958262;28;45350;-39
2023/08/29 00:24:52;;;;;;;;;0.25;0.25;;;;;23.90;40.25;100889.91;4957765;28;62187;-44
2023/08/29 00:27:17;;;;;;;;;1.00;1.00;;;;;23.88;40.09;100889.16;4958515;28;45382;-43
2023/08/29 00:29:43;;;;;;;;;2.50;2.00;;;;;23.86;39.67;100891.09;4958062;28;46754;-40
2023/08/29 00:32:09;;;;;;;;;1.50;1.00;;;;;23.87;39.96;100892.75;4958134;28;45374;-43
2023/08/29 00:34:34;;;;;;;;;2.00;2.00;;;;;23.88;40.19;100894.47;4958074;28;45310;-39
2023/08/29 00:37:00;;;;;;;;;2.00;2.00;;;;;23.88;39.94;100897.09;4958629;28;45338;-39
2023/08/29 00:39:25;;;;;;;;;1.00;1.00;;;;;23.88;40.30;100897.09;4957911;28;45340;-45
2023/08/29 00:41:51;;;;;;;;;1.50;1.00;;;;;23.86;39.82;100886.63;4956320;28;57068;-43
2023/08/29 00:44:17;;;;;;;;;2.00;1.00;;;;;23.88;40.07;100889.16;4958053;28;45292;-46
2023/08/29 00:46:44;;;;;;;;;2.00;1.00;;;;;23.86;40.48;100886.63;4958261;28;45629;-45
2023/08/29 00:49:10;;;;;;;;;1.25;1.25;;;;;23.87;40.33;100879.53;4957845;28;45526;-42
2023/08/29 00:51:36;;;;;;;;;1.00;1.00;;;;;23.88;40.37;100881.22;4957992;28;45660;-42
2023/08/29 00:54:03;;;;;;;;;0.75;0.75;;;;;23.87;40.03;100876.88;4958463;28;45435;-43
2023/08/29 00:56:29;;;;;;;;;1.25;1.25;;;;;23.86;40.57;100876.06;4958695;28;45322;-41
2023/08/29 00:58:54;;;;;;;;;1.75;1.75;;;;;23.86;40.13;100877.88;4940344;28;46279;-42
2023/08/29 01:01:20;;;;;;;;;1.00;1.00;;;;;23.84;40.47;100877.13;4957767;28;45415;-44
2023/08/29 01:03:45;;;;;;;;;1.00;1.00;;;;;23.85;40.39;100874.34;4940128;28;45380;-41
2023/08/29 01:06:11;;;;;;;;;1.25;1.25;;;;;23.85;40.02;100874.34;4957981;28;45545;-39
2023/08/29 01:08:37;;;;;;;;;1.25;1.25;;;;;23.85;40.32;100878.81;4957565;28;45424;-46
2023/08/29 01:11:16;;;;;;;;;1.00;1.00;;;;;23.85;40.25;100884.09;4957992;28;45406;-42
2023/08/29 01:13:54;;;;;;;;;1.00;1.00;;;;;23.84;40.32;100877.94;4957648;28;45422;-43
2023/08/29 01:16:27;;;;;;;;;2.00;0.50;;;;;23.85;40.01;100876.16;4957958;28;45400;-43
2023/08/29 01:18:53;;;;;;;;;1.00;1.00;;;;;23.85;40.51;100873.53;4957403;28;46381;-40
2023/08/29 01:22:12;;;;;;;;;1.50;1.50;;;;;23.85;40.13;100878.81;4957605;28;45359;-41
2023/08/29 01:24:49;;;;;;;;;2.00;1.00;;;;;23.84;40.73;100869.19;4860214;29;45616;-40
2023/08/29 01:27:17;;;;;;;;;1.00;0.00;;;;;23.83;40.16;100868.31;4860389;29;45362;-40
2023/08/29 01:29:46;;;;;;;;;1.00;1.00;;;;;23.83;40.62;100865.66;4912597;28;45510;-48
2023/08/29 01:32:12;;;;;;;;;1.25;1.25;;;;;23.83;40.21;100864.84;4955888;28;45371;-39
2023/08/29 01:34:38;;;;;;;;;1.00;1.00;;;;;23.83;40.16;100867.47;4957294;28;45272;-40
2023/08/29 01:37:04;;;;;;;;;1.00;0.25;;;;;23.83;40.48;100862.19;4957880;28;45201;-39
2023/08/29 01:39:29;;;;;;;;;1.00;1.00;;;;;23.83;40.27;100859.53;4957111;28;46322;-39
2023/08/29 01:41:54;;;;;;;;;1.00;1.00;;;;;23.82;40.68;100866.63;4957270;28;45248;-40
2023/08/29 01:44:20;;;;;;;;;2.00;1.00;;;;;23.82;40.74;100873.72;4957419;28;45429;-45
2023/08/29 01:46:45;;;;;;;;;1.00;1.00;;;;;23.81;40.76;100866.72;4956995;28;50527;-43
2023/08/29 01:49:10;;;;;;;;;0.50;0.50;;;;;23.82;40.35;100869.25;4957079;28;46090;-42
2023/08/29 01:51:36;;;;;;;;;1.00;1.00;;;;;23.81;40.82;100866.72;4957368;28;45295;-46
2023/08/29 01:54:01;;;;;;;;;2.00;1.00;;;;;23.82;40.75;100868.44;4957461;28;45434;-46
2023/08/29 01:56:28;;;;;;;;;2.00;2.00;;;;;23.82;40.81;100865.78;4956234;28;45501;-44
2023/08/29 01:58:54;;;;;;;;;1.00;1.00;;;;;23.81;40.29;100864.09;4956846;28;47118;-44
2023/08/29 02:01:20;;;;;;;;;1.00;1.00;;;;;23.81;40.38;100859.66;4939515;28;45446;-45
2023/08/29 02:03:46;;;;;;;;;1.75;1.00;;;;;23.81;40.51;100864.94;4956894;28;45408;-45
2023/08/29 02:06:13;;;;;;;;;1.00;1.00;;;;;23.79;40.57;100858.91;4939807;28;45560;-46
2023/08/29 02:08:38;;;;;;;;;1.00;1.00;;;;;23.81;40.81;100861.44;4956945;28;46030;-45
2023/08/29 02:11:04;;;;;;;;;1.00;1.00;;;;;23.79;40.96;100861.56;4939880;28;46012;-46
2023/08/29 02:13:29;;;;;;;;;0.25;0.25;;;;;23.80;40.68;100863.25;4939627;28;45399;-46
2023/08/29 02:15:54;;;;;;;;;1.00;1.00;;;;;23.78;40.56;100863.34;4955979;28;45559;-43
2023/08/29 02:18:20;;;;;;;;;3.00;1.25;;;;;23.80;40.48;100865.03;4956562;28;51203;-39
2023/08/29 02:20:45;;;;;;;;;1.00;1.00;;;;;23.80;40.41;100867.69;4956663;28;45373;-40
2023/08/29 02:23:10;;;;;;;;;1.00;1.00;;;;;23.78;40.57;100871.28;4957036;28;45314;-47
2023/08/29 02:25:36;;;;;;;;;1.00;1.00;;;;;23.76;40.69;100875.00;4960139;28;45171;-41
2023/08/29 02:28:01;;;;;;;;;1.00;1.00;;;;;23.78;40.63;100873.94;4960292;28;46199;-39
2023/08/29 02:30:26;;;;;;;;;1.00;1.00;;;;;23.80;40.62;100880.91;4959760;28;55568;-39
2023/08/29 02:32:51;;;;;;;;;1.00;1.00;;;;;23.76;40.39;100881.13;4959970;28;47081;-45
2023/08/29 02:35:17;;;;;;;;;1.00;1.00;;;;;23.78;41.06;100883.69;4959870;28;45874;-44
2023/08/29 02:37:43;;;;;;;;;2.25;1.00;;;;;23.76;40.74;100875.81;4959796;28;46281;-43
2023/08/29 02:40:09;;;;;;;;;1.50;1.50;;;;;23.76;40.76;100875.81;4960014;28;45286;-44
2023/08/29 02:42:35;;;;;;;;;4.00;1.00;;;;;23.77;40.54;100881.97;4960360;28;45405;-47
2023/08/29 02:45:01;;;;;;;;;1.00;1.00;;;;;23.77;40.99;100874.03;4960195;28;45391;-41
2023/08/29 02:47:26;;;;;;;;;1.00;1.00;;;;;23.76;41.01;100881.13;4959848;28;45370;-44
2023/08/29 02:49:52;;;;;;;;;0.75;0.75;;;;;23.75;41.16;100863.56;4959370;28;50669;-43
2023/08/29 02:52:17;;;;;;;;;2.00;1.25;;;;;23.75;40.69;100874.16;4959893;28;45437;-43
2023/08/29 02:54:43;;;;;;;;;1.50;1.00;;;;;23.76;41.16;100878.47;4960050;28;45323;-42
2023/08/29 02:57:08;;;;;;;;;2.00;2.00;;;;;23.75;40.89;100868.00;4959966;28;45316;-41
2023/08/29 02:59:33;;;;;;;;;1.00;1.00;;;;;23.75;40.83;100871.50;4958861;28;65650;-39
2023/08/29 03:02:00;;;;;;;;;1.00;1.00;;;;;23.75;41.28;100871.50;4959586;28;45387;-39
2023/08/29 03:04:26;;;;;;;;;1.00;1.00;;;;;23.75;41.39;100875.94;4959718;28;45413;-46
2023/08/29 03:06:51;;;;;;;;;1.50;1.25;;;;;23.75;41.26;100868.88;4959399;28;47039;-39
2023/08/29 03:09:17;;;;;;;;;1.25;1.25;;;;;23.74;40.84;100861.88;4959420;28;45373;-39
2023/08/29 03:11:42;;;;;;;;;1.00;1.00;;;;;23.74;41.17;100861.88;4958970;28;56625;-42
2023/08/29 03:14:07;;;;;;;;;1.00;1.00;;;;;23.75;41.32;100862.72;4959940;28;45519;-40
2023/08/29 03:16:32;;;;;;;;;1.00;1.00;;;;;23.72;41.34;100863.78;4959356;28;45326;-44
2023/08/29 03:18:58;;;;;;;;;1.00;1.00;;;;;23.72;40.79;100855.84;4959000;28;53044;-41
2023/08/29 03:21:23;;;;;;;;;0.00;0.00;;;;;23.73;40.87;100859.31;4959363;28;45436;-46
2023/08/29 03:23:48;;;;;;;;;0.50;0.50;;;;;23.73;41.00;100854.88;4959575;28;45561;-44
2023/08/29 03:26:14;;;;;;;;;2.00;1.00;;;;;23.73;40.92;100854.88;4958508;28;67086;-42
2023/08/29 03:28:39;;;;;;;;;1.00;1.00;;;;;23.73;41.02;100854.88;4959514;28;45342;-42
2023/08/29 03:31:12;;;;;;;;;1.00;1.00;;;;;23.72;41.21;100858.47;4959170;28;45424;-42
2023/08/29 03:33:38;;;;;;;;;3.00;1.00;;;;;23.73;41.50;100854.03;4942301;28;45378;-43
2023/08/29 03:36:05;;;;;;;;;1.00;1.00;;;;;23.68;40.95;100843.75;4957798;28;45341;-47
2023/08/29 03:38:30;;;;;;;;;2.00;2.00;;;;;23.72;41.25;100847.91;4959039;28;45727;-47
2023/08/29 03:40:56;;;;;;;;;2.25;2.25;;;;;23.73;41.61;100838.16;4957398;28;53075;-40
2023/08/29 03:43:22;;;;;;;;;1.00;1.00;;;;;23.72;41.42;100836.44;4959291;28;45251;-44
2023/08/29 03:46:03;;;;;;;;;2.50;2.00;;;;;23.72;41.60;100845.25;4941440;28;47193;-48
2023/08/29 03:48:30;;;;;;;;;1.00;1.00;;;;;23.71;41.59;100840.03;4958711;28;45819;-43
2023/08/29 03:50:55;;;;;;;;;1.25;1.25;;;;;23.71;41.74;100838.25;4958941;28;45405;-40
2023/08/29 03:53:22;;;;;;;;;2.75;2.75;;;;;23.71;41.10;100840.91;4959113;28;45565;-39
2023/08/29 03:55:47;;;;;;;;;2.25;2.00;;;;;23.71;41.16;100834.75;4958821;28;45263;-45
2023/08/29 03:58:13;;;;;;;;;4.50;3.00;;;;;23.70;41.26;100833.91;4958633;28;55610;-48
2023/08/29 04:00:38;;;;;;;;;3.00;2.00;;;;;23.70;41.13;100844.50;4958685;28;45401;-44
2023/08/29 04:03:06;;;;;;;;;4.00;3.00;;;;;23.70;41.64;100841.84;4958434;28;48781;-46
2023/08/29 04:05:32;;;;;;;;;2.00;2.00;;;;;23.69;41.31;100834.03;4958531;28;46312;-40
2023/08/29 04:07:57;;;;;;;;;2.25;2.25;;;;;23.68;41.32;100830.53;4958591;28;45462;-39
2023/08/29 04:10:22;;;;;;;;;2.75;1.75;;;;;23.69;41.25;100832.22;4958612;28;45298;-39
2023/08/29 04:12:48;;;;;;;;;2.00;2.00;;;;;23.70;41.59;100841.03;4958218;28;52874;-40
2023/08/29 04:15:13;;;;;;;;;4.25;2.00;;;;;23.69;41.25;100840.16;4958586;28;47186;-40
2023/08/29 04:17:39;;;;;;;;;3.00;3.00;;;;;23.68;41.33;100830.53;4958334;28;45335;-39
2023/08/29 04:20:09;;;;;;;;;2.00;2.00;;;;;23.68;41.13;100829.69;4958524;28;45418;-40
2023/08/29 04:22:35;;;;;;;;;5.00;2.00;;;;;23.68;41.29;100838.47;4958590;28;45258;-39
2023/08/29 04:25:01;;;;;;;;;2.00;2.00;;;;;23.66;41.27;100823.66;4958320;28;47190;-43
2023/08/29 04:27:29;;;;;;;;;3.50;3.50;;;;;23.63;41.92;100825.56;4958273;28;45275;-44
2023/08/29 04:29:54;;;;;;;;;2.00;2.00;;;;;23.62;41.83;100830.97;4958273;28;45348;-44
2023/08/29 04:32:19;;;;;;;;;2.00;2.00;;;;;23.57;41.65;100822.47;4958471;28;45417;-46
2023/08/29 04:34:45;;;;;;;;;3.00;1.00;;;;;23.57;41.61;100833.06;4957949;28;57668;-42
2023/08/29 04:37:11;;;;;;;;;3.50;3.00;;;;;23.53;42.21;100831.59;4957643;28;60692;-41
2023/08/29 04:39:36;;;;;;;;;2.00;2.00;;;;;23.50;42.19;100824.69;4958072;28;45426;-40
2023/08/29 04:42:01;;;;;;;;;2.75;2.75;;;;;23.49;42.31;100820.34;4958308;28;45542;-40
2023/08/29 04:44:29;;;;;;;;;2.00;2.00;;;;;23.49;42.13;100819.53;4940596;28;46003;-41
2023/08/29 04:46:54;;;;;;;;;1.50;1.50;;;;;23.47;41.87;100822.28;4940387;28;45302;-45
2023/08/29 04:49:20;;;;;;;;;2.75;2.00;;;;;23.46;42.53;100825.88;4958189;28;45304;-40
2023/08/29 04:51:45;;;;;;;;;2.50;2.00;;;;;23.44;42.40;100827.78;4958467;28;45248;-42
2023/08/29 04:54:11;;;;;;;;;2.00;2.00;;;;;23.40;43.08;100831.56;4957380;28;59417;-43
2023/08/29 04:56:37;;;;;;;;;2.00;2.00;;;;;23.36;43.00;100835.38;4940429;28;45304;-46
2023/08/29 04:59:03;;;;;;;;;2.00;2.00;;;;;23.34;42.93;100827.53;4957837;28;45411;-43
2023/08/29 05:01:28;;;;;;;;;2.50;2.50;;;;;23.32;43.11;100824.16;4958123;28;45444;-42
2023/08/29 05:03:54;;;;;;;;;2.50;2.50;;;;;23.31;42.99;100833.88;4957457;28;45913;-40
2023/08/29 05:06:19;;;;;;;;;1.75;1.75;;;;;23.28;43.26;100828.81;4957586;28;50276;-43
2023/08/29 05:08:44;;;;;;;;;2.00;1.75;;;;;23.25;43.22;100839.59;4958146;28;45279;-42
2023/08/29 05:11:10;;;;;;;;;2.25;2.25;;;;;23.26;43.23;100828.06;4957571;28;46973;-39
2023/08/29 05:13:35;;;;;;;;;2.00;2.00;;;;;23.26;43.36;100830.69;4957476;28;46139;-42
2023/08/29 05:16:00;;;;;;;;;4.00;2.00;;;;;23.29;43.22;100824.38;4957000;28;61491;-41
2023/08/29 05:18:27;;;;;;;;;2.00;2.00;;;;;23.29;42.89;100825.22;4957725;28;45409;-41
2023/08/29 05:20:52;;;;;;;;;3.50;2.50;;;;;23.28;42.77;100822.69;4957689;28;45370;-42
2023/08/29 05:23:17;;;;;;;;;3.75;3.00;;;;;23.32;42.97;100832.06;4957661;28;46189;-41
2023/08/29 05:25:43;;;;;;;;;2.00;2.00;;;;;23.30;43.14;100829.56;4957322;28;46746;-40
2023/08/29 05:28:08;;;;;;;;;2.00;2.00;;;;;23.32;42.81;100834.72;4956316;28;45258;-42
2023/08/29 05:30:35;;;;;;;;;3.00;1.75;;;;;23.29;43.02;100835.78;4957742;28;45595;-42
2023/08/29 05:33:00;;;;;;;;;2.00;1.25;;;;;23.31;42.78;100838.34;4955954;28;47529;-40
2023/08/29 05:35:25;;;;;;;;;4.50;2.25;;;;;23.28;43.00;100827.97;4940029;28;45905;-42
2023/08/29 05:37:51;;;;;;;;;3.50;3.50;;;;;23.30;42.67;100831.34;4957153;28;47391;-41
2023/08/29 05:40:16;;;;;;;;;2.00;2.00;;;;;23.31;42.81;100833.06;4957701;28;45727;-40
2023/08/29 05:42:41;;;;;;;;;2.25;2.25;;;;;23.31;42.74;100835.69;4957142;28;46206;-44
2023/08/29 05:45:07;;;;;;;;;3.00;2.00;;;;;23.29;43.31;100835.78;4957242;28;45466;-44
2023/08/29 05:47:32;;;;;;;;;2.00;2.00;;;;;23.29;43.33;100834.94;4957295;28;45290;-41
2023/08/29 05:49:58;;;;;;;;;2.25;2.00;;;;;23.29;43.15;100829.66;4957343;28;45525;-42
2023/08/29 05:52:23;;;;;;;;;3.75;2.00;;;;;23.27;43.34;100821.81;4956841;28;45479;-43
2023/08/29 05:54:48;;;;;;;;;3.50;1.75;;;;;23.28;43.42;100831.44;4956033;28;45385;-40
2023/08/29 05:57:14;;;;;;;;;3.25;2.00;;;;;23.26;43.07;100814.00;4956930;28;45514;-41
2023/08/29 05:59:39;;;;;;;;;3.00;2.00;;;;;23.29;43.27;100819.09;4958160;28;47855;-40
2023/08/29 06:02:05;;;;;;;;;3.00;3.00;;;;;23.26;43.45;100820.13;4960154;28;46020;-42
2023/08/29 06:04:32;;;;;;;;;2.00;1.25;;;;;23.26;43.49;100827.22;4959040;28;46373;-41
2023/08/29 06:06:58;;;;;;;;;2.00;2.00;;;;;23.25;43.23;100825.53;4960426;28;45330;-40
2023/08/29 06:09:23;;;;;;;;;3.00;2.00;;;;;23.26;42.94;100832.50;4960566;28;45338;-41
2023/08/29 06:11:49;;;;;;;;;1.75;1.25;;;;;23.24;43.36;100826.47;4960521;28;45249;-39
2023/08/29 06:14:14;;;;;;;;;1.00;1.00;;;;;23.25;42.98;100829.03;4958812;28;45367;-42
2023/08/29 06:16:39;;;;;;;;;2.00;2.00;;;;;23.26;43.43;100835.16;4960334;28;45304;-43
2023/08/29 06:19:05;;;;;;;;;2.50;2.00;;;;;23.25;42.97;100839.59;4960034;28;45941;-41
2023/08/29 06:21:30;;;;;;;;;6.00;3.50;;;;;23.22;43.04;100826.59;4959948;28;46025;-45
2023/08/29 06:23:55;;;;;;;;;2.00;2.00;;;;;23.23;43.67;100825.63;4959937;28;48629;-42
2023/08/29 06:26:21;;;;;;;;;4.00;2.25;;;;;23.24;43.10;100823.81;4960489;28;45256;-42
2023/08/29 06:28:47;;;;;;;;;2.00;2.00;;;;;23.24;43.46;100827.34;4960261;28;45236;-39
2023/08/29 06:31:12;;;;;;;;;2.25;2.25;;;;;23.25;43.15;100822.88;4959923;28;46652;-39
2023/08/29 06:33:39;;;;;;;;;2.25;2.25;;;;;23.26;43.61;100825.41;4960079;28;45425;-41
2023/08/29 06:36:04;;;;;;;;;4.50;2.00;;;;;23.23;43.63;100828.28;4960304;28;45429;-41
2023/08/29 06:38:30;;;;;;;;;1.00;1.00;;;;;23.24;43.61;100831.75;4960247;28;45351;-41
2023/08/29 06:40:58;;;;;;;;;1.00;1.00;;;;;23.26;43.23;100829.84;4959682;28;45929;-43
2023/08/29 06:43:24;;;;;;;;;2.00;0.50;;;;;23.26;43.60;100830.69;4959830;28;45366;-41
2023/08/29 06:45:50;;;;;;;;;2.00;1.00;;;;;23.25;43.28;100830.81;4960188;28;45433;-41
2023/08/29 06:48:16;;;;;;;;;4.50;3.00;;;;;23.25;43.60;100834.31;4926606;28;45263;-42
2023/08/29 06:50:41;;;;;;;;;2.75;2.00;;;;;23.25;43.49;100834.31;4959518;28;45307;-39
2023/08/29 06:53:07;;;;;;;;;1.75;1.75;;;;;23.26;43.48;100835.97;4959752;28;45440;-40
2023/08/29 06:55:34;;;;;;;;;2.75;2.00;;;;;23.27;43.60;100831.56;4959682;28;45477;-46
2023/08/29 06:58:00;;;;;;;;;2.00;2.00;;;;;23.27;43.76;100829.75;4959734;28;45259;-44
2023/08/29 07:00:25;;;;;;;;;1.75;1.00;;;;;23.29;43.72;100837.59;4941788;28;45988;-42
2023/08/29 07:02:51;;;;;;;;;2.00;1.00;;;;;23.29;43.77;100840.25;4959528;28;45359;-46
2023/08/29 07:05:17;;;;;;;;;1.25;1.25;;;;;23.27;43.29;100842.97;4959725;28;45493;-48
2023/08/29 07:07:43;;;;;;;;;3.00;2.00;;;;;23.28;43.64;100842.03;4942369;28;45718;-39
2023/08/29 07:10:08;;;;;;;;;2.00;2.00;;;;;23.26;43.75;100840.44;4959181;28;46125;-46
2023/08/29 07:12:34;;;;;;;;;3.75;2.00;;;;;23.29;43.37;100842.88;4959421;28;45231;-43
2023/08/29 07:15:02;;;;;;;;;2.25;1.00;;;;;23.30;43.46;100848.06;4942238;28;45375;-42
2023/08/29 07:17:28;;;;;;;;;3.00;2.00;;;;;23.25;43.46;100842.25;4959778;28;45407;-41
2023/08/29 07:19:53;;;;;;;;;2.25;2.00;;;;;23.30;43.82;100841.94;4959499;28;46614;-40
2023/08/29 07:22:19;;;;;;;;;3.00;3.00;;;;;23.29;44.08;100848.19;4959325;28;45491;-42
2023/08/29 07:24:44;;;;;;;;;2.50;1.25;;;;;23.31;43.95;100851.56;4959017;28;53574;-41
2023/08/29 07:27:09;;;;;;;;;4.00;2.00;;;;;23.31;43.99;100854.22;4959173;28;45344;-43
2023/08/29 07:29:35;;;;;;;;;2.00;2.00;;;;;23.31;43.81;100857.69;4959245;28;46389;-43
2023/08/29 07:32:00;;;;;;;;;3.00;2.00;;;;;23.30;44.04;100853.34;4959028;28;45361;-43
2023/08/29 07:34:26;;;;;;;;;2.00;2.00;;;;;23.31;43.71;100849.75;4959165;28;45362;-40
2023/08/29 07:36:51;;;;;;;;;1.50;1.50;;;;;23.32;44.03;100853.22;4959655;28;45544;-41
2023/08/29 07:39:18;;;;;;;;;2.25;2.25;;;;;23.32;43.85;100853.22;4958768;28;46022;-47
2023/08/29 07:41:47;;;;;;;;;1.00;1.00;;;;;23.31;43.73;100851.56;4958960;28;45181;-48
2023/08/29 07:44:12;;;;;;;;;2.00;2.00;;;;;23.34;43.60;100853.97;4959135;28;45364;-40
2023/08/29 07:46:38;;;;;;;;;2.00;2.00;;;;;23.34;43.90;100851.34;4959170;28;45377;-40
2023/08/29 07:49:10;;;;;;;;;1.50;1.50;;;;;23.34;44.04;100851.34;4958835;28;45411;-41
2023/08/29 07:51:35;;;;;;;;;2.00;2.00;;;;;23.36;43.98;100849.44;4958738;28;45233;-42
2023/08/29 07:54:01;;;;;;;;;2.25;2.25;;;;;23.38;43.63;100850.19;4958959;28;45238;-43
2023/08/29 07:56:26;;;;;;;;;3.25;2.25;;;;;23.39;43.59;100854.53;4959572;28;45740;-43
2023/08/29 07:58:52;;;;;;;;;3.00;3.00;;;;;23.37;44.05;100848.50;4958887;28;46878;-40
2023/08/29 08:01:17;;;;;;;;;4.00;2.50;;;;;23.38;44.06;100846.69;4958627;28;45421;-41
2023/08/29 08:03:43;;;;;;;;;2.75;2.25;;;;;23.38;43.61;100839.63;4958673;28;45279;-43
2023/08/29 08:06:08;;;;;;;;;3.00;2.25;;;;;23.39;43.56;100851.03;4958982;28;45412;-46
2023/08/29 08:08:33;;;;;;;;;1.50;1.50;;;;;23.39;43.81;100849.25;4958482;28;45442;-42
2023/08/29 08:10:59;;;;;;;;;1.00;1.00;;;;;23.41;43.63;100843.84;4958514;28;45306;-42
2023/08/29 08:13:24;;;;;;;;;1.25;1.25;;;;;23.42;43.85;100845.53;4958980;28;45709;-47
2023/08/29 08:15:49;;;;;;;;;2.00;2.00;;;;;23.40;44.11;100843.00;4958407;28;48152;-42
2023/08/29 08:18:15;;;;;;;;;3.25;3.00;;;;;23.42;44.03;100833.19;4958300;28;48159;-41
2023/08/29 08:20:40;;;;;;;;;1.25;1.25;;;;;23.42;43.54;100838.47;4958040;28;51646;-39
2023/08/29 08:23:06;;;;;;;;;2.25;2.25;;;;;23.43;43.45;100836.66;4957773;28;45454;-42
2023/08/29 08:25:31;;;;;;;;;1.50;1.50;;;;;23.43;43.56;100834.00;4958552;28;45592;-41
2023/08/29 08:27:56;;;;;;;;;1.00;1.00;;;;;23.43;43.94;100837.50;4941153;28;47288;-40
2023/08/29 08:30:22;;;;;;;;;1.75;1.75;;;;;23.43;43.98;100840.13;4957999;28;49234;-41
2023/08/29 08:32:47;;;;;;;;;1.00;1.00;;;;;23.43;43.94;100840.13;4958273;28;45363;-40
